createdAt,value
2022-11-14T00:01:33.029Z,56.80
2022-11-14T00:04:29.567Z,56.70
2022-11-14T00:07:23.172Z,56.70
2022-11-14T00:10:17.179Z,57.10
2022-11-14T00:13:11.869Z,57.20
2022-11-14T00:16:05.348Z,57.20
2022-11-14T00:18:58.665Z,57.30
2022-11-14T00:21:53.455Z,57.30
2022-11-14T00:24:46.741Z,57.20
2022-11-14T00:27:40.261Z,57.10
2022-11-14T00:30:33.576Z,57.40
2022-11-14T00:33:27.144Z,57.80
2022-11-14T00:36:20.695Z,58.20
2022-11-14T00:39:15.032Z,58.30
2022-11-14T00:42:08.709Z,58.30
2022-11-14T00:45:02.235Z,58.50
2022-11-14T00:47:55.531Z,58.30
2022-11-14T00:50:49.105Z,58.10
2022-11-14T00:53:42.340Z,57.90
2022-11-14T00:56:35.910Z,57.60
2022-11-14T00:59:29.545Z,57.50
2022-11-14T01:02:23.450Z,57.30
2022-11-14T01:05:17.192Z,57.00
2022-11-14T01:08:11.134Z,56.80
2022-11-14T01:11:16.953Z,56.80
2022-11-14T01:14:10.443Z,56.70
2022-11-14T01:17:03.935Z,56.60
2022-11-14T01:19:57.544Z,56.50
2022-11-14T01:22:51.184Z,56.40
2022-11-14T01:25:45.232Z,56.30
2022-11-14T01:28:39.983Z,56.30
2022-11-14T01:31:33.547Z,56.40
2022-11-14T01:34:27.132Z,56.40
2022-11-14T01:37:20.914Z,56.20
2022-11-14T01:40:14.212Z,55.90
2022-11-14T01:43:19.752Z,56.10
2022-11-14T01:46:26.286Z,56.00
2022-11-14T01:49:25.685Z,55.80
2022-11-14T01:52:26.185Z,55.90
2022-11-14T01:55:20.030Z,55.90
2022-11-14T01:58:14.698Z,55.90
2022-11-14T02:01:08.533Z,56.30
2022-11-14T02:04:06.657Z,56.50
2022-11-14T02:07:04.743Z,56.50
2022-11-14T02:10:06.065Z,56.70
2022-11-14T02:12:59.584Z,56.60
2022-11-14T02:15:53.054Z,56.80
2022-11-14T02:18:46.503Z,57.20
2022-11-14T02:21:40.230Z,57.30
2022-11-14T02:24:33.521Z,57.50
2022-11-14T02:27:27.152Z,57.70
2022-11-14T02:30:23.364Z,57.70
2022-11-14T02:33:17.147Z,57.80
2022-11-14T02:36:10.509Z,57.80
2022-11-14T02:39:03.780Z,57.90
2022-11-14T02:41:57.205Z,58.30
2022-11-14T02:44:50.994Z,57.70
2022-11-14T02:47:44.260Z,57.80
2022-11-14T02:50:38.149Z,57.70
2022-11-14T02:53:31.320Z,57.70
2022-11-14T02:56:25.097Z,57.80
2022-11-14T02:59:18.605Z,57.80
2022-11-14T03:02:12.249Z,57.90
2022-11-14T03:05:05.887Z,57.80
2022-11-14T03:07:59.691Z,57.90
2022-11-14T03:10:53.388Z,58.30
2022-11-14T03:13:46.864Z,58.60
2022-11-14T03:16:40.491Z,58.70
2022-11-14T03:19:33.855Z,58.70
2022-11-14T03:22:28.289Z,58.60
2022-11-14T03:25:21.953Z,58.50
2022-11-14T03:28:15.620Z,58.50
2022-11-14T03:31:13.063Z,58.50
2022-11-14T03:34:06.566Z,58.40
2022-11-14T03:37:00.511Z,58.40
2022-11-14T03:39:53.970Z,58.70
2022-11-14T03:42:47.401Z,58.60
2022-11-14T03:45:40.750Z,58.60
2022-11-14T03:48:34.459Z,58.60
2022-11-14T03:51:27.881Z,58.50
2022-11-14T03:54:21.608Z,58.40
2022-11-14T03:57:14.908Z,58.50
2022-11-14T04:00:09.576Z,58.90
2022-11-14T04:03:03.100Z,59.00
2022-11-14T04:05:56.427Z,59.50
2022-11-14T04:08:51.894Z,60.00
2022-11-14T04:11:45.471Z,60.30
2022-11-14T04:14:38.984Z,60.70
2022-11-14T04:17:38.635Z,61.10
2022-11-14T04:20:33.200Z,61.30
2022-11-14T04:23:26.688Z,61.50
2022-11-14T04:26:20.267Z,61.70
2022-11-14T04:29:13.617Z,61.70
2022-11-14T04:32:07.297Z,61.80
2022-11-14T04:35:00.673Z,61.80
2022-11-14T04:37:54.060Z,61.70
2022-11-14T04:40:51.617Z,62.20
2022-11-14T04:43:50.543Z,62.30
2022-11-14T04:46:44.352Z,62.30
2022-11-14T04:49:37.917Z,62.50
2022-11-14T04:52:31.431Z,62.50
2022-11-14T04:55:24.770Z,62.70
2022-11-14T04:58:18.520Z,62.50
2022-11-14T05:01:13.745Z,62.80
2022-11-14T05:04:07.634Z,63.00
2022-11-14T05:07:01.431Z,62.80
2022-11-14T05:09:55.065Z,62.90
2022-11-14T05:12:48.783Z,62.70
2022-11-14T05:15:42.114Z,62.60
2022-11-14T05:18:35.927Z,62.40
2022-11-14T05:21:29.490Z,62.10
2022-11-14T05:24:23.186Z,61.30
2022-11-14T05:27:16.414Z,61.60
2022-11-14T05:30:11.284Z,60.90
2022-11-14T05:33:04.801Z,61.30
2022-11-14T05:36:08.081Z,61.80
2022-11-14T05:39:01.787Z,61.70
2022-11-14T05:41:55.181Z,61.70
2022-11-14T05:44:48.725Z,61.30
2022-11-14T05:47:42.025Z,60.90
2022-11-14T05:50:35.392Z,61.10
2022-11-14T05:53:30.956Z,61.20
2022-11-14T05:56:24.706Z,61.10
2022-11-14T05:59:18.350Z,61.10
2022-11-14T06:02:11.937Z,61.20
2022-11-14T06:05:06.398Z,61.60
2022-11-14T06:07:59.694Z,61.50
2022-11-14T06:10:53.323Z,61.40
2022-11-14T06:13:48.676Z,61.30
2022-11-14T06:16:42.309Z,61.80
2022-11-14T06:19:35.934Z,62.30
2022-11-14T06:22:29.561Z,62.80
2022-11-14T06:25:23.392Z,63.10
2022-11-14T06:28:16.719Z,63.10
2022-11-14T06:31:10.176Z,63.10
2022-11-14T06:34:06.012Z,63.20
2022-11-14T06:36:59.415Z,63.30
2022-11-14T06:39:52.721Z,63.10
2022-11-14T06:42:46.190Z,63.10
2022-11-14T06:45:39.937Z,63.10
2022-11-14T06:48:34.133Z,63.10
2022-11-14T06:51:27.708Z,63.00
2022-11-14T06:54:21.210Z,63.20
2022-11-14T06:57:15.761Z,63.00
2022-11-14T07:00:09.794Z,63.60
2022-11-14T07:03:03.164Z,63.90
2022-11-14T07:06:01.500Z,63.80
2022-11-14T07:08:57.931Z,63.60
2022-11-14T07:11:52.385Z,63.00
2022-11-14T07:14:46.853Z,62.50
2022-11-14T07:17:40.301Z,62.10
2022-11-14T07:20:33.862Z,61.70
2022-11-14T07:23:28.458Z,61.20
2022-11-14T07:26:22.173Z,60.80
2022-11-14T07:29:15.712Z,61.40
2022-11-14T07:32:09.307Z,61.70
2022-11-14T07:35:02.862Z,61.30
2022-11-14T07:38:02.888Z,61.50
2022-11-14T07:41:01.924Z,61.40
2022-11-14T07:43:55.676Z,61.00
2022-11-14T07:46:50.131Z,61.00
2022-11-14T07:49:43.749Z,60.60
2022-11-14T07:52:37.367Z,60.50
2022-11-14T07:55:31.187Z,60.70
2022-11-14T07:58:24.766Z,60.80
2022-11-14T08:01:17.960Z,60.90
2022-11-14T08:04:11.581Z,61.10
2022-11-14T08:07:05.005Z,61.20
2022-11-14T08:09:58.848Z,61.00
2022-11-14T08:13:25.308Z,60.60
2022-11-14T08:16:14.441Z,60.40
2022-11-14T08:19:08.020Z,60.00
2022-11-14T08:22:01.633Z,60.20
2022-11-14T08:24:55.081Z,60.10
2022-11-14T08:27:48.348Z,59.60
2022-11-14T08:30:42.080Z,59.40
2022-11-14T08:33:35.149Z,59.30
2022-11-14T08:36:28.563Z,59.40
2022-11-14T08:39:22.209Z,59.40
2022-11-14T08:42:16.006Z,59.80
2022-11-14T08:45:09.795Z,61.10
2022-11-14T08:48:03.243Z,63.30
2022-11-14T08:50:56.749Z,69.00
2022-11-14T08:53:52.275Z,71.70
2022-11-14T08:56:45.701Z,74.90
2022-11-14T08:59:38.983Z,76.30
2022-11-14T09:02:32.649Z,77.80
2022-11-14T09:05:26.588Z,78.40
2022-11-14T09:08:20.337Z,78.80
2022-11-14T09:11:18.083Z,78.80
2022-11-14T09:14:12.969Z,78.50
2022-11-14T09:17:06.611Z,78.30
2022-11-14T09:20:00.476Z,77.80
2022-11-14T09:22:53.938Z,77.40
2022-11-14T09:25:47.499Z,77.80
2022-11-14T09:28:40.692Z,77.50
2022-11-14T09:31:33.988Z,76.90
2022-11-14T09:34:27.417Z,76.20
2022-11-14T09:37:20.889Z,75.10
2022-11-14T09:40:14.569Z,73.90
2022-11-14T09:44:01.141Z,73.70
2022-11-14T09:47:07.157Z,73.40
2022-11-14T09:50:11.898Z,74.00
2022-11-14T09:53:15.043Z,74.30
2022-11-14T09:56:20.474Z,74.90
2022-11-14T09:59:14.844Z,74.90
2022-11-14T10:02:31.501Z,75.50
2022-11-14T10:05:53.802Z,75.90
2022-11-14T10:09:12.140Z,76.20
2022-11-14T10:12:29.473Z,76.60
2022-11-14T10:15:45.540Z,76.50
2022-11-14T10:18:50.198Z,77.00
2022-11-14T10:21:57.213Z,76.60
2022-11-14T10:25:30.156Z,76.40
2022-11-14T10:29:24.586Z,76.70
2022-11-14T10:32:55.146Z,75.80
2022-11-14T10:36:00.021Z,75.80
2022-11-14T10:39:14.209Z,75.30
2022-11-14T10:42:16.136Z,73.70
2022-11-14T10:45:33.001Z,71.40
2022-11-14T10:48:40.961Z,67.80
2022-11-14T10:51:47.815Z,65.70
2022-11-14T10:55:00.253Z,65.00
2022-11-14T10:57:53.741Z,65.10
2022-11-14T11:00:47.707Z,65.90
2022-11-14T11:03:43.844Z,65.40
2022-11-14T11:06:37.405Z,65.80
2022-11-14T11:09:49.549Z,64.20
2022-11-14T11:12:54.371Z,62.60
2022-11-14T11:15:58.236Z,63.30
2022-11-14T11:18:51.672Z,64.30
2022-11-14T11:21:52.180Z,63.20
2022-11-14T11:24:45.646Z,61.30
2022-11-14T11:27:39.385Z,58.30
2022-11-14T11:30:32.858Z,57.90
2022-11-14T11:33:29.891Z,55.90
2022-11-14T11:36:25.618Z,55.90
2022-11-14T11:39:28.430Z,55.10
2022-11-14T11:43:31.934Z,54.60
2022-11-14T11:45:55.980Z,53.10
2022-11-14T11:48:58.014Z,51.20
2022-11-14T11:51:56.056Z,51.10
2022-11-14T11:55:16.484Z,50.60
2022-11-14T11:58:30.209Z,49.60
2022-11-14T12:01:23.516Z,49.40
2022-11-14T12:04:17.129Z,50.30
2022-11-14T12:07:19.937Z,51.40
2022-11-14T12:10:23.125Z,52.00
2022-11-14T12:13:54.708Z,52.10
2022-11-14T12:17:37.361Z,53.00
2022-11-14T12:21:04.841Z,54.50
2022-11-14T12:24:55.519Z,55.40
2022-11-14T12:28:30.722Z,55.10
2022-11-14T12:31:26.140Z,55.20
2022-11-14T12:34:29.202Z,55.00
2022-11-14T12:37:34.801Z,55.60
2022-11-14T12:40:34.630Z,54.80
2022-11-14T12:43:39.076Z,54.80
2022-11-14T12:47:04.793Z,55.20
2022-11-14T12:50:01.558Z,54.90
2022-11-14T12:52:55.825Z,53.30
2022-11-14T12:55:49.139Z,52.30
2022-11-14T12:58:58.435Z,50.20
2022-11-14T13:01:52.853Z,49.60
2022-11-14T13:05:14.805Z,48.60
2022-11-14T13:08:47.748Z,47.40
2022-11-14T13:12:04.929Z,45.60
2022-11-14T13:15:49.158Z,43.60
2022-11-14T13:19:21.119Z,44.60
2022-11-14T13:22:14.813Z,44.60
2022-11-14T13:25:11.368Z,43.10
2022-11-14T13:28:39.116Z,41.60
2022-11-14T13:31:42.733Z,40.30
2022-11-14T13:35:37.352Z,41.00
2022-11-14T13:39:05.392Z,41.60
2022-11-14T13:42:38.687Z,40.60
2022-11-14T13:45:51.757Z,41.80
2022-11-14T13:49:16.861Z,41.50
2022-11-14T13:52:13.389Z,40.80
2022-11-14T13:55:07.496Z,41.70
2022-11-14T13:58:32.368Z,39.90
2022-11-14T14:01:31.327Z,39.80
2022-11-14T14:04:37.291Z,40.90
2022-11-14T14:08:14.311Z,41.20
2022-11-14T14:11:29.460Z,40.70
2022-11-14T14:15:08.005Z,40.00
2022-11-14T14:18:28.609Z,39.60
2022-11-14T14:22:09.323Z,39.80
2022-11-14T14:25:28.798Z,40.10
2022-11-14T14:29:09.401Z,39.00
2022-11-14T14:32:21.450Z,38.40
2022-11-14T14:35:35.582Z,38.40
2022-11-14T14:38:33.330Z,37.30
2022-11-14T14:41:32.560Z,37.50
2022-11-14T14:44:33.745Z,38.00
2022-11-14T14:47:40.508Z,37.60
2022-11-14T14:50:52.648Z,38.20
2022-11-14T14:53:53.910Z,37.10
2022-11-14T14:56:59.908Z,37.70
2022-11-14T15:00:08.761Z,38.50
2022-11-14T15:03:03.730Z,38.40
2022-11-14T15:06:03.676Z,37.90
2022-11-14T15:09:00.680Z,38.00
2022-11-14T15:11:58.992Z,38.00
2022-11-14T15:14:54.803Z,37.90
2022-11-14T15:17:50.219Z,38.00
2022-11-14T15:20:43.927Z,37.90
2022-11-14T15:23:38.976Z,37.80
2022-11-14T15:26:34.844Z,38.00
2022-11-14T15:29:30.031Z,38.00
2022-11-14T15:32:25.427Z,38.30
2022-11-14T15:35:23.926Z,38.10
2022-11-14T15:38:43.228Z,37.70
2022-11-14T15:41:36.666Z,37.60
2022-11-14T15:44:34.581Z,37.40
2022-11-14T15:47:34.817Z,37.20
2022-11-14T15:50:31.341Z,37.80
2022-11-14T15:53:28.225Z,37.90
2022-11-14T15:56:21.895Z,37.60
2022-11-14T15:59:15.597Z,37.70
2022-11-14T16:02:21.058Z,37.60
2022-11-14T16:05:16.906Z,37.50
2022-11-14T16:08:13.485Z,37.70
2022-11-14T16:11:06.853Z,37.70
2022-11-14T16:14:00.358Z,37.80
2022-11-14T16:16:53.839Z,37.90
2022-11-14T16:19:47.237Z,38.10
2022-11-14T16:22:40.909Z,38.30
2022-11-14T16:25:35.235Z,38.70
2022-11-14T16:28:28.980Z,39.00
2022-11-14T16:31:22.722Z,38.90
2022-11-14T16:34:21.412Z,39.00
2022-11-14T16:37:15.148Z,39.10
2022-11-14T16:40:19.447Z,39.30
2022-11-14T16:43:14.751Z,39.40
2022-11-14T16:46:09.634Z,39.60
2022-11-14T16:49:04.287Z,39.80
2022-11-14T16:51:58.487Z,39.80
2022-11-14T16:54:51.884Z,39.90
2022-11-14T16:57:45.495Z,39.90
2022-11-14T17:00:43.704Z,40.10
2022-11-14T17:03:37.341Z,39.90
2022-11-14T17:06:31.053Z,39.80
2022-11-14T17:09:24.305Z,39.90
2022-11-14T17:12:17.738Z,39.70
2022-11-14T17:15:11.318Z,39.60
2022-11-14T17:18:06.110Z,39.70
2022-11-14T17:20:59.740Z,39.70
2022-11-14T17:23:57.964Z,39.50
2022-11-14T17:26:51.541Z,39.60
2022-11-14T17:29:46.602Z,39.70
2022-11-14T17:32:39.892Z,39.60
2022-11-14T17:35:36.160Z,39.50
2022-11-14T17:38:33.466Z,39.40
2022-11-14T17:41:27.013Z,39.50
2022-11-14T17:44:20.301Z,39.60
2022-11-14T17:47:13.597Z,39.40
2022-11-14T17:50:07.574Z,39.80
2022-11-14T17:53:00.837Z,40.00
2022-11-14T17:55:57.511Z,40.10
2022-11-14T17:58:53.415Z,40.30
2022-11-14T18:01:47.104Z,40.30
2022-11-14T18:04:40.326Z,40.40
2022-11-14T18:07:34.008Z,40.60
2022-11-14T18:10:28.065Z,40.70
2022-11-14T18:13:21.548Z,40.80
2022-11-14T18:16:20.082Z,40.40
2022-11-14T18:19:13.806Z,40.30
2022-11-14T18:22:07.578Z,40.40
2022-11-14T18:25:07.696Z,40.40
2022-11-14T18:28:01.536Z,39.60
2022-11-14T18:30:56.678Z,40.40
2022-11-14T18:33:50.424Z,40.50
2022-11-14T18:36:44.131Z,40.40
2022-11-14T18:39:37.494Z,40.60
2022-11-14T18:42:30.840Z,41.00
2022-11-14T18:45:24.488Z,41.50
2022-11-14T18:48:18.183Z,41.90
2022-11-14T18:51:15.613Z,41.90
2022-11-14T18:54:15.825Z,42.50
2022-11-14T18:57:09.489Z,42.80
2022-11-14T19:00:04.356Z,42.70
2022-11-14T19:03:00.100Z,42.80
2022-11-14T19:06:03.006Z,42.60
2022-11-14T19:08:58.587Z,42.30
2022-11-14T19:12:11.108Z,42.10
2022-11-14T19:15:05.176Z,42.20
2022-11-14T19:17:58.633Z,42.40
2022-11-14T19:21:03.512Z,42.60
2022-11-14T19:23:57.351Z,42.80
2022-11-14T19:26:51.010Z,42.90
2022-11-14T19:29:44.836Z,42.60
2022-11-14T19:32:38.243Z,42.30
2022-11-14T19:35:31.554Z,42.50
2022-11-14T19:38:25.195Z,42.50
2022-11-14T19:41:21.800Z,42.50
2022-11-14T19:44:15.199Z,42.70
2022-11-14T19:47:08.802Z,42.80
2022-11-14T19:50:02.117Z,42.60
2022-11-14T19:52:55.926Z,42.90
2022-11-14T19:55:49.484Z,42.60
2022-11-14T19:58:45.998Z,42.90
2022-11-14T20:01:41.923Z,42.90
2022-11-14T20:04:37.900Z,42.90
2022-11-14T20:07:33.055Z,43.10
2022-11-14T20:10:26.461Z,42.80
2022-11-14T20:13:19.645Z,42.80
2022-11-14T20:16:14.416Z,43.10
2022-11-14T20:19:08.231Z,43.30
2022-11-14T20:22:01.628Z,43.30
2022-11-14T20:24:54.934Z,43.10
2022-11-14T20:27:49.124Z,43.10
2022-11-14T20:30:42.401Z,42.80
2022-11-14T20:33:42.662Z,42.90
2022-11-14T20:37:08.828Z,42.90
2022-11-14T20:39:49.813Z,43.30
2022-11-14T20:42:47.142Z,43.10
2022-11-14T20:45:40.617Z,43.20
2022-11-14T20:48:35.004Z,43.00
2022-11-14T20:51:28.304Z,42.90
2022-11-14T20:54:21.642Z,42.90
2022-11-14T20:57:14.932Z,42.90
2022-11-14T21:00:09.090Z,42.80
2022-11-14T21:03:02.753Z,42.80
2022-11-14T21:05:57.659Z,43.10
2022-11-14T21:08:50.925Z,43.20
2022-11-14T21:11:44.158Z,43.10
2022-11-14T21:14:37.797Z,42.60
2022-11-14T21:17:31.661Z,42.50
2022-11-14T21:20:24.786Z,42.50
2022-11-14T21:23:17.986Z,42.50
2022-11-14T21:26:16.747Z,42.70
2022-11-14T21:29:14.458Z,42.90
2022-11-14T21:32:07.977Z,42.70
2022-11-14T21:35:04.481Z,42.30
2022-11-14T21:38:02.159Z,42.20
2022-11-14T21:40:56.221Z,42.30
2022-11-14T21:43:55.074Z,42.20
2022-11-14T21:46:49.672Z,42.30
2022-11-14T21:49:42.864Z,42.30
2022-11-14T21:52:36.861Z,42.40
2022-11-14T21:55:33.788Z,42.50
2022-11-14T21:58:30.720Z,42.60
2022-11-14T22:01:42.720Z,42.90
2022-11-14T22:04:37.160Z,43.20
2022-11-14T22:07:30.669Z,43.50
2022-11-14T22:10:24.295Z,43.60
2022-11-14T22:13:17.853Z,43.70
2022-11-14T22:16:11.941Z,43.50
2022-11-14T22:19:06.008Z,43.50
2022-11-14T22:21:59.575Z,43.70
2022-11-14T22:24:53.151Z,43.90
2022-11-14T22:27:46.821Z,44.00
2022-11-14T22:30:40.630Z,44.10
2022-11-14T22:33:36.401Z,44.20
2022-11-14T22:36:30.091Z,44.30
2022-11-14T22:39:23.270Z,44.10
2022-11-14T22:42:16.761Z,44.00
2022-11-14T22:45:10.638Z,43.90
2022-11-14T22:48:03.956Z,43.80
2022-11-14T22:51:10.526Z,43.70
2022-11-14T22:54:04.324Z,43.50
2022-11-14T22:56:57.661Z,43.60
2022-11-14T22:59:51.035Z,43.60
2022-11-14T23:02:44.610Z,43.50
2022-11-14T23:05:38.634Z,43.60
2022-11-14T23:08:32.173Z,43.50
2022-11-14T23:11:29.062Z,43.30
2022-11-14T23:14:22.504Z,43.20
2022-11-14T23:17:16.196Z,42.90
2022-11-14T23:20:16.103Z,43.00
2022-11-14T23:23:10.089Z,43.00
2022-11-14T23:26:09.029Z,42.90
2022-11-14T23:29:02.733Z,42.90
2022-11-14T23:31:56.420Z,43.10
2022-11-14T23:34:50.087Z,42.80
2022-11-14T23:37:43.250Z,42.50
2022-11-14T23:40:36.712Z,42.30
2022-11-14T23:43:30.858Z,42.10
2022-11-14T23:46:24.475Z,41.80
2022-11-14T23:49:18.165Z,41.90
2022-11-14T23:52:11.649Z,41.50
2022-11-14T23:55:05.566Z,41.50
2022-11-14T23:57:59.033Z,41.40
